Latest Weather Observations for Shepparton

IDV60801

Issued at 4:02 am EDT Friday 20 January 2017 (issued every 30 minutes, with the page automatically refreshed every 10 minutes)

About weather observations | Map of weather stations | Latest weather observations for VIC | Other Formats
Station Details ID: 081125 Name: SHEPPARTON AIRPORT Lat: -36.43 Lon: 145.39 Height: 113.9 m
Data from the previous 72 hours. | See also: Recent months at Shepparton
Date/Time
EDT
Temp
°C
App
Temp
°C
Dew
Point
°C
Rel
Hum
%
Delta-T
°C
Wind Press
QNH
hPa
Press
MSL
hPa
Rain since
9am
mm
Dir  Spd
km/h
Gust
km/h
Spd
kts
Gust
kts
20/04:00am 16.5 15.4 15.2 92 0.8 SSE 15 20 8 11 999.1 998.6 5.0
20/03:33am 17.0 15.5 15.3 90 1.0 SW 17 28 9 15 999.9 999.4 4.2
20/03:30am 16.9 14.4 15.2 90 1.0 SW 22 37 12 20 1000.0 999.5 3.8
20/03:14am 17.6 13.6 14.1 80 2.0 SW 28 54 15 29 999.6 999.1 2.8
20/03:09am 19.7 16.9 12.5 63 4.1 SW 19 33 10 18 999.4 998.9 0.6
20/03:00am 22.7 22.9 11.7 49 6.2 E 2 7 1 4 997.4 996.9 0.0
20/02:30am 23.6 21.3 7.3 35 8.5 NE 9 15 5 8 996.9 996.4 0.0
20/02:00am 23.8 21.3 6.6 33 9.0 ENE 9 13 5 7 997.3 996.8 0.0
20/01:30am 23.3 22.5 8.2 38 8.0 NE 2 7 1 4 998.5 998.0 0.0
20/01:00am 23.8 22.5 7.8 36 8.5 NNE 4 7 2 4 998.9 998.4 0.0
20/12:30am 23.9 22.1 7.9 36 8.5 NNE 7 11 4 6 998.7 998.2 0.0
20/12:00am 24.7 22.4 7.4 33 9.2 NE 9 13 5 7 999.0 998.5 0.0
 
Date/Time
EDT
Temp
°C
App
Temp
°C
Dew
Point
°C
Rel
Hum
%
Delta-T
°C
Wind Press
QNH
hPa
Press
MSL
hPa
Rain since
9am
mm
Dir  Spd
km/h
Gust
km/h
Spd
kts
Gust
kts
19/11:30pm 24.9 22.6 7.5 33 9.2 NE 9 11 5 6 999.7 999.2 0.0
19/11:00pm 24.6 23.1 8.5 36 8.7 NNE 6 9 3 5 1000.6 1000.1 0.0
19/10:30pm 24.9 23.6 9.2 37 8.6 SW 6 11 3 6 1001.4 1000.8 0.0
19/10:00pm 24.9 24.7 9.2 37 8.6 CALM 0 0 0 0 1002.3 1001.7 0.0
19/09:30pm 24.8 24.6 9.1 37 8.6 CALM 0 0 0 0 1002.5 1001.9 0.0
19/09:00pm 25.9 24.9 5.5 27 10.5 CALM 0 0 0 0 1002.5 1001.9 0.0
19/08:30pm 27.1 25.8 4.2 23 11.6 CALM 0 6 0 3 1002.8 1002.2 0.0
19/08:00pm 28.4 25.6 3.3 20 12.7 SW 7 9 4 5 1003.3 1002.8 0.0
19/07:30pm 29.1 25.1 3.1 19 13.1 SW 13 15 7 8 1003.4 1002.9 0.0
19/07:00pm 30.0 26.2 1.5 16 14.1 SW 11 15 6 8 1003.6 1003.1 0.0
19/06:30pm 30.7 26.7 0.2 14 14.8 WSW 11 17 6 9 1003.8 1003.3 0.0
19/06:00pm 31.6 26.9 0.9 14 15.2 WSW 15 19 8 10 1004.2 1003.7 0.0
19/05:30pm 31.0 28.0 2.3 16 14.4 WSW 7 15 4 8 1004.5 1004.0 0.0
19/05:00pm 31.1 28.1 4.0 18 14.1 SSW 9 15 5 8 1005.3 1004.8 0.0
19/04:30pm 31.7 28.7 6.0 20 13.8 WNW 11 19 6 10 1005.8 1005.3 0.0
19/04:00pm 30.3 26.8 5.6 21 13.1 WNW 13 20 7 11 1006.5 1006.0 0.0
19/03:30pm 29.9 27.9 7.2 24 12.3 W 7 9 4 5 1007.0 1006.5 0.0
19/03:00pm 29.5 27.0 8.0 26 11.8 NW 11 17 6 9 1007.4 1006.9 0.0
19/02:30pm 29.4 27.1 7.3 25 12.0 NNW 9 15 5 8 1008.0 1007.5 0.0
19/02:00pm 28.3 25.6 7.5 27 11.3 SW 11 28 6 15 1008.5 1008.0 0.0
19/01:30pm 28.7 27.1 8.9 29 11.0 NE 7 17 4 9 1008.8 1008.3 0.0
19/01:00pm 28.2 26.3 9.0 30 10.6 NW 9 22 5 12 1009.5 1009.0 0.0
19/12:30pm 26.1 23.7 8.6 33 9.5 N 11 19 6 10 1009.9 1009.4 0.0
19/12:00pm 26.0 24.4 8.9 34 9.4 W 7 11 4 6 1010.5 1009.9 0.0
19/11:30am 24.7 23.0 8.2 35 8.8 N 7 13 4 7 1011.0 1010.5 0.0
19/11:00am 23.3 21.6 7.4 36 8.3 ENE 6 13 3 7 1011.1 1010.6 0.0
19/10:30am 21.9 20.1 7.0 38 7.7 SSE 6 11 3 6 1011.5 1011.0 0.0
19/10:00am 20.2 17.9 5.8 39 7.2 SSE 7 13 4 7 1011.8 1011.3 0.0
19/09:30am 18.4 15.2 5.3 42 6.4 S 11 17 6 9 1011.9 1011.4 0.0
19/09:00am 16.9 12.7 5.5 47 5.5 S 17 20 9 11 1012.0 1011.5 0.0
19/08:30am 15.4 10.7 5.0 50 4.9 SSE 19 24 10 13 1012.2 1011.7 0.0
19/08:00am 13.9 9.2 5.3 56 4.1 S 19 24 10 13 1012.2 1011.7 0.0
19/07:30am 12.8 8.1 5.2 60 3.5 S 19 24 10 13 1012.2 1011.7 0.0
19/07:00am 11.7 7.8 5.3 65 3.0 S 15 20 8 11 1011.9 1011.4 0.0
19/06:30am 10.9 7.3 5.2 68 2.6 S 13 17 7 9 1011.8 1011.3 0.0
19/06:00am 10.8 7.1 4.7 66 2.8 SSW 13 17 7 9 1011.6 1011.1 0.0
19/05:30am 11.3 7.6 4.5 63 3.1 SSW 13 20 7 11 1011.4 1010.9 0.0
19/05:00am 11.6 7.1 4.1 60 3.4 SSW 17 22 9 12 1011.1 1010.6 0.0
19/04:30am 12.0 7.6 4.5 60 3.4 SSW 17 22 9 12 1011.0 1010.5 0.0
19/04:00am 12.3 7.5 4.8 60 3.5 SSW 19 24 10 13 1011.0 1010.5 0.0
19/03:30am 12.3 8.0 5.2 62 3.3 SSW 17 20 9 11 1011.2 1010.7 0.0
19/03:00am 12.2 8.8 5.8 65 3.0 SSW 13 17 7 9 1011.4 1010.9 0.0
19/02:30am 13.0 8.5 6.1 63 3.3 SSW 19 24 10 13 1011.7 1011.2 0.0
19/02:00am 13.0 8.6 6.4 64 3.2 SSW 19 24 10 13 1012.0 1011.5 0.0
19/01:30am 13.4 8.8 6.3 62 3.4 SSW 20 28 11 15 1012.1 1011.6 0.0
19/01:00am 13.7 8.6 6.1 60 3.6 S 22 28 12 15 1012.4 1011.9 0.0
19/12:30am 14.0 9.3 5.9 58 3.9 SSW 20 28 11 15 1012.6 1012.1 0.0
19/12:00am 14.6 8.3 5.7 55 4.3 S 28 41 15 22 1012.7 1012.2 0.0
 
Date/Time
EDT
Temp
°C
App
Temp
°C
Dew
Point
°C
Rel
Hum
%
Delta-T
°C
Wind Press
QNH
hPa
Press
MSL
hPa
Rain since
9am
mm
Dir  Spd
km/h
Gust
km/h
Spd
kts
Gust
kts
18/11:30pm 15.4 10.0 6.2 54 4.5 S 24 33 13 18 1012.8 1012.3 0.0
18/11:00pm 15.9 9.7 6.1 52 4.8 SSW 28 39 15 21 1012.8 1012.3 0.0
18/10:30pm 16.6 11.1 6.1 50 5.1 S 24 35 13 19 1012.9 1012.4 0.0
18/10:00pm 17.3 11.7 5.6 46 5.7 SSW 24 33 13 18 1013.1 1012.6 0.0
18/09:30pm 18.1 12.8 5.0 42 6.3 S 22 32 12 17 1013.1 1012.6 0.0
18/09:00pm 19.0 12.9 4.7 39 6.9 S 26 39 14 21 1012.9 1012.4 0.0
18/08:30pm 19.9 13.9 5.5 39 7.1 SSW 26 37 14 20 1012.4 1011.9 0.0
18/08:00pm 21.1 14.8 5.5 36 7.8 S 28 37 15 20 1012.2 1011.7 0.0
18/07:30pm 22.2 15.9 5.6 34 8.4 S 28 41 15 22 1012.1 1011.6 0.0
18/07:23pm 22.6 16.4 6.0 34 8.4 S 28 46 15 25 1012.0 1011.5 0.0
18/07:00pm 23.4 16.6 5.3 31 9.1 SSW 30 41 16 22 1011.5 1011.0 0.0
18/06:30pm 23.9 16.6 5.3 30 9.4 S 33 41 18 22 1011.5 1011.0 0.0
18/06:00pm 24.5 17.4 5.3 29 9.8 SSW 32 43 17 23 1011.5 1011.0 0.0
18/05:30pm 24.8 17.5 5.6 29 9.8 SSW 33 44 18 24 1011.5 1011.0 0.0
18/05:10pm 25.2 19.2 6.9 31 9.6 S 28 48 15 26 1011.5 1011.0 0.0
18/05:00pm 26.3 19.4 7.4 30 10.1 S 33 44 18 24 1011.5 1011.0 0.0
18/04:30pm 25.4 19.3 6.6 30 9.8 S 28 48 15 26 1011.3 1010.8 0.0
18/04:26pm 25.6 19.5 6.8 30 9.9 SSW 28 48 15 26 1011.3 1010.8 0.0
18/04:00pm 25.5 18.7 7.1 31 9.7 S 32 44 17 24 1011.2 1010.7 0.0
18/03:30pm 25.1 18.7 6.8 31 9.6 S 30 39 16 21 1011.1 1010.6 0.0
18/03:23pm 24.9 18.8 6.6 31 9.5 S 28 48 15 26 1011.3 1010.8 0.0
18/03:00pm 25.7 19.8 7.3 31 9.8 SSW 28 37 15 20 1011.3 1010.8 0.0
18/02:30pm 24.5 19.9 8.0 35 8.8 SSW 22 32 12 17 1011.8 1011.3 0.0
18/02:00pm 23.0 18.4 8.3 39 7.8 SSW 22 30 12 16 1011.5 1011.0 0.0
18/01:30pm 22.2 16.9 10.0 46 6.7 SSW 28 35 15 19 1012.9 1012.4 0.0
18/01:00pm 20.6 16.4 9.8 50 5.8 SSW 22 32 12 17 1012.9 1012.4 0.0
18/12:30pm 19.9 13.9 10.0 53 5.3 SSW 32 41 17 22 1012.4 1011.9 0.0
18/12:00pm 19.4 14.1 11.4 60 4.4 S 30 43 16 23 1012.8 1012.3 0.0
18/11:30am 19.7 14.9 11.7 60 4.4 SSW 28 39 15 21 1012.2 1011.7 0.0
18/11:02am 19.9 15.3 12.2 61 4.3 S 28 46 15 25 1012.1 1011.6 0.0
18/11:00am 19.6 14.6 12.1 62 4.2 S 30 46 16 25 1012.1 1011.6 0.0
18/10:30am 19.1 14.4 13.1 68 3.4 SSW 30 41 16 22 1011.9 1011.4 0.0
18/10:00am 20.1 15.0 13.1 64 4.0 S 32 46 17 25 1011.6 1011.1 0.0
18/09:30am 20.5 15.5 13.9 66 3.8 S 33 48 18 26 1011.0 1010.5 0.0
18/09:27am 20.3 15.9 14.0 67 3.7 S 30 48 16 26 1011.0 1010.5 0.0
18/09:00am 19.9 16.6 14.9 73 2.9 SSW 26 35 14 19 1010.5 1009.9 0.0
18/08:30am 20.1 17.0 14.5 70 3.3 SSW 24 39 13 21 1010.0 1009.5 0.0
18/08:00am 20.3 16.4 13.3 64 4.0 SSW 26 37 14 20 1009.5 1009.0 0.0
18/07:30am 19.9 16.3 11.9 60 4.5 SSW 22 32 12 17 1008.9 1008.4 0.0
18/07:00am 19.0 15.8 11.1 60 4.3 SW 19 30 10 16 1008.3 1007.8 0.0
18/06:30am 18.0 15.9 11.1 64 3.8 WSW 13 17 7 9 1007.0 1006.5 0.0
18/06:00am 18.1 17.4 10.0 59 4.3 SSW 4 7 2 4 1006.6 1006.1 0.0
18/05:30am 19.3 17.6 9.8 54 5.1 SSW 9 11 5 6 1006.7 1006.2 0.0
18/05:00am 20.0 17.9 9.6 51 5.6 SSW 11 15 6 8 1006.8 1006.3 0.0
18/04:30am 21.6 17.3 9.5 46 6.5 S 22 32 12 17 1006.6 1006.1 0.0
18/04:08am 22.2 16.0 9.4 44 6.9 S 32 52 17 28 1006.9 1006.4 0.0
18/04:00am 22.0 16.2 9.5 45 6.8 SSW 30 43 16 23 1007.1 1006.6 0.0
18/03:30am 22.1 17.5 9.6 45 6.8 SSW 24 37 13 20 1006.9 1006.4 0.0
18/03:00am 22.3 18.5 9.1 43 7.1 SSW 19 28 10 15 1006.3 1005.8 0.0
18/02:30am 22.9 18.1 9.0 41 7.5 S 24 32 13 17 1006.3 1005.8 0.0
18/02:00am 23.5 17.9 8.8 39 7.9 S 28 37 15 20 1006.9 1006.4 0.0
18/01:30am 23.9 17.9 8.7 38 8.2 S 30 39 16 21 1006.7 1006.2 0.0
18/01:00am 24.6 18.2 8.5 36 8.7 S 32 43 17 23 1006.6 1006.1 0.0
18/12:43am 24.8 19.0 9.5 38 8.4 S 30 48 16 26 1006.8 1006.3 0.0
18/12:30am 24.7 19.1 10.2 40 8.1 SSW 30 41 16 22 1006.5 1006.0 0.0
18/12:00am 25.1 19.9 10.2 39 8.3 SSW 28 39 15 21 1006.4 1005.9 0.0
 
Date/Time
EDT
Temp
°C
App
Temp
°C
Dew
Point
°C
Rel
Hum
%
Delta-T
°C
Wind Press
QNH
hPa
Press
MSL
hPa
Rain since
9am
mm
Dir  Spd
km/h
Gust
km/h
Spd
kts
Gust
kts
17/11:30pm 27.9 22.5 8.2 29 10.7 SSW 26 37 14 20 1005.6 1005.1 0.0
17/11:00pm 27.5 24.2 7.9 29 10.6 SSW 15 22 8 12 1005.2 1004.7 0.0
17/10:30pm 24.8 24.6 9.1 37 8.6 CALM 0 2 0 1 1004.5 1004.0 0.0
17/10:00pm 25.5 23.7 8.1 33 9.4 NNW 7 9 4 5 1004.6 1004.1 0.0
17/09:30pm 26.5 24.7 7.0 29 10.3 NNW 6 7 3 4 1004.4 1003.9 0.0
17/09:00pm 29.6 27.5 2.0 17 13.7 WNW 2 6 1 3 1004.2 1003.7 0.0
17/08:30pm 33.5 30.4 0.2 12 16.4 WNW 6 7 3 4 1004.1 1003.6 0.0
17/08:00pm 37.1 33.6 -2.6 8 19.2 W 6 11 3 6 1003.9 1003.4 0.0
17/07:30pm 37.7 33.9 -3.9 7 19.7 WNW 7 11 4 6 1003.8 1003.3 0.0
17/07:00pm 39.2 33.8 -4.9 6 20.9 W 15 20 8 11 1003.9 1003.4 0.0
17/06:30pm 39.6 34.8 -2.6 7 20.7 W 13 24 7 13 1004.1 1003.6 0.0
17/06:00pm 40.0 36.0 -2.3 7 21.0 WNW 9 15 5 8 1004.4 1003.9 0.0
17/05:30pm 39.7 35.3 -2.5 7 20.7 W 11 19 6 10 1004.9 1004.4 0.0
17/05:00pm 39.4 34.2 -2.7 7 20.7 W 15 22 8 12 1005.3 1004.8 0.0
17/04:30pm 38.8 34.2 -1.3 8 20.0 WNW 13 22 7 12 1005.7 1005.2 0.0
17/04:00pm 39.2 34.0 -2.9 7 20.6 WNW 15 24 8 13 1006.1 1005.6 0.0
17/03:30pm 39.1 32.9 -2.9 7 20.4 W 20 32 11 17 1006.6 1006.1 0.0
17/03:00pm 39.3 33.0 -1.0 8 20.3 NW 22 32 12 17 1006.9 1006.4 0.0
17/02:30pm 38.7 31.4 -3.2 7 20.2 W 26 37 14 20 1007.3 1006.8 0.0
17/02:00pm 38.6 33.8 0.1 9 19.6 W 15 26 8 14 1007.9 1007.4 0.0
17/01:30pm 38.1 31.7 -1.9 8 19.6 W 22 32 12 17 1008.3 1007.8 0.0
17/01:00pm 37.7 32.1 0.9 10 18.9 W 20 32 11 17 1008.6 1008.1 0.0
17/12:30pm 36.9 31.6 1.6 11 18.2 NNW 19 30 10 16 1009.0 1008.5 0.0
17/12:00pm 36.0 31.3 3.3 13 17.2 NNW 17 24 9 13 1009.5 1009.0 0.0
17/11:30am 35.6 31.1 4.0 14 16.8 NW 17 24 9 13 1009.9 1009.4 0.0
17/11:00am 33.6 30.6 7.6 20 14.5 NNW 13 20 7 11 1010.4 1009.8 0.0
17/10:30am 31.9 29.6 11.7 29 11.9 NNE 15 22 8 12 1010.7 1010.1 0.0
17/10:00am 29.4 27.0 11.5 33 10.4 NNE 15 22 8 12 1011.1 1010.6 0.0
17/09:30am 26.5 25.1 13.3 44 7.8 NE 13 19 7 10 1011.3 1010.8 0.0
17/09:00am 24.5 24.1 14.0 52 6.2 NE 9 13 5 7 1011.4 1010.9 0.0
17/08:30am 22.5 21.7 13.0 55 5.5 NE 9 13 5 7 1011.5 1011.0 0.0
17/08:00am 21.5 21.1 12.9 58 4.9 NE 7 11 4 6 1011.3 1010.8 0.0
17/07:30am 19.7 20.8 13.4 67 3.6 CALM 0 0 0 0 1011.1 1010.6 0.0
17/07:00am 15.2 14.7 12.0 81 1.7 SE 6 7 3 4 1010.7 1010.1 0.0
17/06:30am 15.7 15.2 12.1 79 2.0 SE 6 6 3 3 1010.5 1009.9 0.0
17/06:00am 16.2 16.6 11.2 72 2.7 CALM 0 0 0 0 1010.0 1009.5 0.0
17/05:30am 17.1 16.4 11.4 69 3.1 NNE 6 7 3 4 1009.6 1009.1 0.0
17/05:00am 18.0 16.7 11.3 65 3.7 NE 9 11 5 6 1009.4 1008.9 0.0
17/04:30am 18.9 16.9 11.5 62 4.1 NE 13 15 7 8 1009.3 1008.8 0.0

Other Formats:

Comma delimited format used in spreadsheet applications
http://www.bom.gov.au/fwo/IDV60801/IDV60801.94875.axf

JavaScript Object Notation format (JSON) in row-major order
http://www.bom.gov.au/fwo/IDV60801/IDV60801.94875.json